createdAt,value
2018-11-04T11:24:37.390Z,981.7
2018-11-04T11:25:40.277Z,981.7
2018-11-04T11:26:43.811Z,981.6
2018-11-04T11:27:55.513Z,981.7
2018-11-04T11:28:56.808Z,981.6
2018-11-04T11:29:59.232Z,981.6
2018-11-04T11:31:00.658Z,981.4
2018-11-04T11:32:03.114Z,981.6
2018-11-04T11:33:06.684Z,981.5
2018-11-04T11:34:07.930Z,981.5
2018-11-04T11:35:11.652Z,981.5
2018-11-04T11:36:13.963Z,981.5
2018-11-04T11:37:15.172Z,981.5
2018-11-04T11:38:16.382Z,981.4
2018-11-04T11:39:20.359Z,981.4
2018-11-04T11:40:22.102Z,981.4
2018-11-04T11:41:26.843Z,981.4
2018-11-04T11:42:31.049Z,981.4
2018-11-04T11:43:34.272Z,981.3
2018-11-04T11:44:38.286Z,981.3
2018-11-04T11:45:39.717Z,981.3
2018-11-04T11:46:41.330Z,981.3
2018-11-04T11:47:43.713Z,981.3
2018-11-04T11:48:48.827Z,981.3
2018-11-04T11:49:50.712Z,981.2
2018-11-04T11:50:54.215Z,981.2
2018-11-04T11:51:55.548Z,981.2
2018-11-04T11:52:57.162Z,981.2
2018-11-04T11:53:58.363Z,981.2
2018-11-04T11:55:03.661Z,981.1
2018-11-04T11:56:13.739Z,981.3
2018-11-04T11:57:22.115Z,981.3
2018-11-04T11:58:25.738Z,981.3
2018-11-04T11:59:27.369Z,981.1
2018-11-04T12:00:28.533Z,981.2
2018-11-04T12:01:32.377Z,981.1
2018-11-04T12:02:40.943Z,981.1
2018-11-04T12:03:51.205Z,981.1
2018-11-04T12:04:52.477Z,981.1
2018-11-04T12:05:58.677Z,981.1
2018-11-04T12:07:01.334Z,981.1
2018-11-04T12:08:02.712Z,981.1
2018-11-04T12:10:23.958Z,981
2018-11-04T12:11:29.421Z,981.1
2018-11-04T12:12:33.903Z,981.1
2018-11-04T12:13:42.188Z,981.1
2018-11-04T12:14:47.642Z,981
2018-11-04T12:15:49.180Z,980.9
2018-11-04T12:16:53.528Z,981
2018-11-04T12:17:54.969Z,981
2018-11-04T12:18:58.462Z,981
2018-11-04T12:19:59.711Z,981
2018-11-04T12:21:05.171Z,981
2018-11-04T12:22:09.518Z,980.9
2018-11-04T12:23:17.461Z,981
2018-11-04T12:24:18.973Z,981
2018-11-04T12:25:20.338Z,981
2018-11-04T12:26:22.705Z,981
2018-11-04T12:27:24.288Z,981
2018-11-04T12:28:29.934Z,981
2018-11-04T12:29:31.246Z,980.9
2018-11-04T12:30:32.706Z,980.8
2018-11-04T12:31:38.029Z,980.8
2018-11-04T12:32:45.419Z,980.8
2018-11-04T12:33:52.841Z,980.8
2018-11-04T12:35:09.279Z,980.8
2018-11-04T12:36:13.291Z,980.8
2018-11-04T12:37:17.870Z,980.8
2018-11-04T12:38:19.138Z,980.8
2018-11-04T12:39:21.477Z,980.7
2018-11-04T12:40:24.971Z,980.7
2018-11-04T12:41:31.328Z,980.6
2018-11-04T12:42:32.580Z,980.6
2018-11-04T12:43:34.110Z,980.6
2018-11-04T12:44:35.662Z,980.6
2018-11-04T12:45:44.352Z,980.6
2018-11-04T12:46:54.362Z,980.6
2018-11-04T12:47:57.476Z,980.5
2018-11-04T12:49:00.024Z,980.3
2018-11-04T12:50:04.069Z,980.4
2018-11-04T12:51:05.568Z,980.5
2018-11-04T12:52:06.767Z,980.3
2018-11-04T12:53:09.684Z,980.4
2018-11-04T12:54:15.693Z,980.2
2018-11-04T12:55:18.181Z,980.3
2018-11-04T12:56:21.720Z,980.3
2018-11-04T12:57:25.881Z,980.3
2018-11-04T12:58:32.048Z,980.3
2018-11-04T12:59:33.786Z,980.3
2018-11-04T13:00:38.203Z,980.2
2018-11-04T13:01:46.990Z,980.2
2018-11-04T13:02:49.577Z,980.2
2018-11-04T13:03:55.958Z,980.1
2018-11-04T13:05:02.664Z,980.1
2018-11-04T13:06:04.686Z,980.1
2018-11-04T13:07:06.299Z,980.1
2018-11-04T13:08:13.155Z,980.1
2018-11-04T13:09:14.419Z,980.1
2018-11-04T13:10:18.375Z,979.9
2018-11-04T13:12:30.142Z,980.1
2018-11-04T13:13:32.905Z,980.1
2018-11-04T13:14:34.704Z,980.1
2018-11-04T13:15:38.611Z,980
2018-11-04T13:16:48.053Z,980.1
2018-11-04T13:17:51.724Z,980
2018-11-04T13:18:55.619Z,980
2018-11-04T13:20:02.568Z,980
2018-11-04T13:21:06.590Z,980
2018-11-04T13:22:07.881Z,980
2018-11-04T13:23:21.276Z,979.9
2018-11-04T13:24:27.295Z,980
2018-11-04T13:25:28.795Z,979.8
2018-11-04T13:26:34.779Z,979.7
2018-11-04T13:27:41.598Z,979.9
2018-11-04T13:28:43.092Z,979.9
2018-11-04T13:29:52.764Z,980
2018-11-04T13:31:02.818Z,979.9
2018-11-04T13:32:11.722Z,979.9
2018-11-04T13:33:17.045Z,979.8
2018-11-04T13:34:18.327Z,979.8
2018-11-04T13:35:23.923Z,979.9
2018-11-04T13:36:25.322Z,979.9
2018-11-04T13:37:28.340Z,979.9
2018-11-04T13:38:29.743Z,979.9
2018-11-04T13:39:32.411Z,979.9
2018-11-04T13:40:34.155Z,980
2018-11-04T13:41:35.452Z,979.9
2018-11-04T13:42:37.147Z,979.9
2018-11-04T13:43:42.594Z,979.9
2018-11-04T13:44:43.940Z,979.7
2018-11-04T13:45:52.901Z,979.9
2018-11-04T13:47:05.205Z,979.9
2018-11-04T13:48:09.288Z,979.8
2018-11-04T13:49:15.385Z,979.6
2018-11-04T13:50:19.724Z,979.7
2018-11-04T13:51:27.003Z,979.8
2018-11-04T13:52:45.604Z,979.7
2018-11-04T13:53:47.008Z,979.8
2018-11-04T13:54:48.307Z,979.7
2018-11-04T13:55:49.530Z,979.8
2018-11-04T13:56:59.906Z,979.6
2018-11-04T13:58:01.312Z,979.8
2018-11-04T13:59:06.585Z,979.8
2018-11-04T14:00:16.205Z,979.8
2018-11-04T14:01:24.211Z,979.7
2018-11-04T14:02:25.522Z,979.8
2018-11-04T14:03:39.586Z,979.8
2018-11-04T14:04:46.539Z,979.8
2018-11-04T14:05:48.168Z,979.8
2018-11-04T14:06:54.345Z,979.8
2018-11-04T14:07:59.750Z,979.8
2018-11-04T14:09:02.017Z,979.8
2018-11-04T14:10:05.407Z,979.8
2018-11-04T14:11:09.765Z,979.6
2018-11-04T14:13:34.323Z,979.7
2018-11-04T14:14:37.081Z,979.7
2018-11-04T14:15:41.287Z,979.6
2018-11-04T14:16:52.575Z,979.6
2018-11-04T14:17:53.941Z,979.7
2018-11-04T14:18:56.368Z,979.6
2018-11-04T14:19:58.882Z,979.7
2018-11-04T14:21:05.569Z,979.6
2018-11-04T14:22:06.886Z,979.7
2018-11-04T14:23:15.622Z,979.7
2018-11-04T14:24:26.480Z,979.6
2018-11-04T14:25:30.189Z,979.7
2018-11-04T14:26:31.423Z,979.7
2018-11-04T14:27:39.912Z,979.4
2018-11-04T14:28:45.086Z,979.6
2018-11-04T14:29:50.698Z,979.6
2018-11-04T14:31:01.588Z,979.6
2018-11-04T14:32:08.161Z,979.6
2018-11-04T14:33:09.484Z,979.6
2018-11-04T14:34:10.901Z,979.6
2018-11-04T14:35:17.303Z,979.5
2018-11-04T14:36:25.268Z,979.5
2018-11-04T14:37:28.731Z,979.5
2018-11-04T14:38:30.057Z,979.5
2018-11-04T14:39:34.764Z,979.3
2018-11-04T14:41:54.754Z,979.4
2018-11-04T14:42:56.636Z,979.3
2018-11-04T14:44:02.649Z,979.4
2018-11-04T14:45:08.645Z,979.4
2018-11-04T14:46:15.105Z,979.4
2018-11-04T14:47:27.330Z,979.1
2018-11-04T14:48:32.771Z,979.4
2018-11-04T14:49:39.560Z,979.4
2018-11-04T14:50:45.059Z,979.4
2018-11-04T14:51:50.006Z,979.5
2018-11-04T14:52:53.691Z,979.5
2018-11-04T14:53:57.554Z,979.4
2018-11-04T14:55:16.317Z,979.2
2018-11-04T14:56:17.848Z,979.2
2018-11-04T14:57:19.304Z,979.4
2018-11-04T14:58:20.573Z,979.3
2018-11-04T14:59:22.209Z,979.4
2018-11-04T15:00:25.522Z,979.3
2018-11-04T15:01:37.316Z,979.2
2018-11-04T15:02:38.681Z,979.3
2018-11-04T15:03:49.882Z,979.3
2018-11-04T15:04:55.688Z,979.3
2018-11-04T15:05:58.609Z,979.3
2018-11-04T15:07:01.343Z,979.3
2018-11-04T15:08:02.870Z,979.3
2018-11-04T15:09:21.053Z,979.2
2018-11-04T15:10:37.938Z,979
2018-11-04T15:11:44.142Z,979.2
2018-11-04T15:12:45.668Z,979.1
2018-11-04T15:13:58.365Z,979.1
2018-11-04T15:15:09.080Z,979
2018-11-04T15:16:10.665Z,979.1
2018-11-04T15:17:14.651Z,979
2018-11-04T15:18:23.825Z,979.1
2018-11-04T15:19:35.090Z,979.1
2018-11-04T15:20:41.315Z,979.1
2018-11-04T15:21:45.697Z,979.1
2018-11-04T15:22:52.963Z,979.1
2018-11-04T15:24:01.160Z,978.9
2018-11-04T15:25:05.766Z,979.1
2018-11-04T15:26:13.076Z,979.2
2018-11-04T15:27:14.469Z,979.1
2018-11-04T15:28:21.450Z,978.9
2018-11-04T15:29:23.054Z,979.2
2018-11-04T15:30:29.049Z,979
2018-11-04T15:31:30.516Z,979.3
2018-11-04T15:32:36.447Z,978.9
2018-11-04T15:33:37.728Z,979.3
2018-11-04T15:34:40.699Z,979
2018-11-04T15:35:49.557Z,979.4
2018-11-04T15:36:53.419Z,979.3
2018-11-04T15:37:57.476Z,979.4
2018-11-04T15:38:58.764Z,979.3
2018-11-04T15:40:06.573Z,979.2
2018-11-04T15:41:31.529Z,979.3
2018-11-04T15:42:33.242Z,979.2
2018-11-04T15:43:55.507Z,979.2
2018-11-04T15:45:01.709Z,979.2
2018-11-04T15:46:03.557Z,979.2
2018-11-04T15:47:09.668Z,979.2
2018-11-04T15:48:17.250Z,979.2
2018-11-04T15:49:18.492Z,979.2
2018-11-04T15:50:19.835Z,979.2
2018-11-04T15:51:32.636Z,979.2
2018-11-04T15:52:45.260Z,979.1
2018-11-04T15:53:46.761Z,979.2
2018-11-04T15:54:50.691Z,979.1
2018-11-04T15:55:56.719Z,979.2
2018-11-04T15:57:08.612Z,979.2
2018-11-04T15:58:16.306Z,979.1
2018-11-04T15:59:19.296Z,979
2018-11-04T16:00:20.914Z,979.1
2018-11-04T16:01:24.370Z,979
2018-11-04T16:02:26.673Z,979.1
2018-11-04T16:03:30.431Z,979.1
2018-11-04T16:04:47.542Z,979
2018-11-04T16:05:53.215Z,979.1
2018-11-04T16:07:18.105Z,979.1
2018-11-04T16:08:22.213Z,979.1
2018-11-04T16:09:35.629Z,979
2018-11-04T16:10:41.052Z,979
2018-11-04T16:11:45.284Z,979
2018-11-04T16:12:46.541Z,979
2018-11-04T16:15:09.702Z,978.9
2018-11-04T16:16:16.414Z,978.9
2018-11-04T16:17:25.634Z,978.9
2018-11-04T16:18:30.431Z,979
2018-11-04T16:19:42.327Z,978.9
2018-11-04T16:20:43.743Z,978.9
2018-11-04T16:21:51.148Z,978.9
2018-11-04T16:22:53.939Z,978.9
2018-11-04T16:23:55.316Z,978.9
2018-11-04T16:26:20.697Z,978.9
2018-11-04T16:27:26.373Z,979
2018-11-04T16:28:29.267Z,978.9
2018-11-04T16:29:33.705Z,979
2018-11-04T16:30:35.303Z,979
2018-11-04T16:31:36.570Z,978.9
2018-11-04T16:32:37.876Z,978.9
2018-11-04T16:33:42.664Z,978.9
2018-11-04T16:34:48.651Z,978.8
2018-11-04T16:35:51.089Z,978.9
2018-11-04T16:36:53.636Z,978.9
2018-11-04T16:37:54.961Z,978.7
2018-11-04T16:38:59.231Z,978.7
2018-11-04T16:40:01.664Z,978.9
2018-11-04T16:41:05.566Z,978.9
2018-11-04T16:42:07.892Z,978.9
2018-11-04T16:43:14.403Z,978.9
2018-11-04T16:44:18.999Z,978.9
2018-11-04T16:45:30.981Z,978.9
2018-11-04T16:46:32.549Z,978.9
2018-11-04T16:47:38.969Z,978.8
2018-11-04T16:48:40.226Z,978.8
2018-11-04T16:49:41.458Z,978.9
2018-11-04T16:50:42.725Z,978.9
2018-11-04T16:51:44.137Z,978.9
2018-11-04T16:52:45.858Z,978.9
2018-11-04T16:53:47.365Z,978.9
2018-11-04T16:54:54.741Z,979
2018-11-04T16:56:02.694Z,978.9
2018-11-04T16:57:03.792Z,979
2018-11-04T16:58:07.291Z,978.8
2018-11-04T16:59:11.664Z,978.8
2018-11-04T17:00:15.687Z,978.8
2018-11-04T17:01:19.933Z,978.9
2018-11-04T17:02:36.793Z,978.9
2018-11-04T17:03:40.559Z,978.9
2018-11-04T17:04:50.305Z,978.9
2018-11-04T17:05:54.142Z,978.9
2018-11-04T17:07:00.444Z,978.9
2018-11-04T17:08:03.682Z,978.9
2018-11-04T17:09:06.967Z,979
2018-11-04T17:10:10.633Z,979
2018-11-04T17:11:16.800Z,979
2018-11-04T17:12:22.954Z,979
2018-11-04T17:13:26.903Z,978.9
2018-11-04T17:14:30.870Z,978.8
2018-11-04T17:15:32.584Z,978.6
2018-11-04T17:16:37.684Z,978.9
2018-11-04T17:17:38.991Z,978.8
2018-11-04T17:18:47.426Z,978.8
2018-11-04T17:19:48.698Z,978.8
2018-11-04T17:20:55.883Z,978.8
2018-11-04T17:21:59.997Z,978.8
2018-11-04T17:23:01.404Z,978.8
2018-11-04T17:24:02.716Z,978.8
2018-11-04T17:25:06.433Z,978.8
2018-11-04T17:26:09.142Z,978.6
2018-11-04T17:27:12.092Z,978.7
2018-11-04T17:28:18.352Z,978.7
2018-11-04T17:29:27.386Z,978.7
2018-11-04T17:30:33.989Z,978.5
2018-11-04T17:31:35.597Z,978.7
2018-11-04T17:32:41.978Z,978.7
2018-11-04T17:33:44.691Z,978.7
2018-11-04T17:34:48.614Z,978.7
2018-11-04T17:35:54.454Z,978.7
2018-11-04T17:36:57.486Z,978.6
2018-11-04T17:38:03.429Z,978.7
2018-11-04T17:39:31.919Z,978.7
2018-11-04T17:40:36.403Z,978.7
2018-11-04T17:41:39.307Z,978.7
2018-11-04T17:42:43.349Z,978.8
2018-11-04T17:43:50.319Z,978.8
2018-11-04T17:44:52.024Z,978.8
2018-11-04T17:45:54.604Z,978.8
2018-11-04T17:46:56.328Z,978.8
2018-11-04T17:48:00.977Z,978.7
2018-11-04T17:49:13.167Z,978.6
2018-11-04T17:50:21.944Z,978.8
2018-11-04T17:51:23.747Z,978.6
2018-11-04T17:52:25.508Z,978.8
2018-11-04T17:53:47.366Z,978.8
2018-11-04T17:54:48.540Z,978.7
2018-11-04T17:55:57.545Z,978.8
2018-11-04T17:57:01.219Z,978.8
2018-11-04T17:58:06.387Z,978.7
2018-11-04T17:59:13.726Z,978.7
2018-11-04T18:00:27.093Z,978.7
2018-11-04T18:01:34.548Z,978.6
2018-11-04T18:02:35.775Z,978.7
2018-11-04T18:03:40.196Z,978.7
2018-11-04T18:04:44.724Z,978.7
2018-11-04T18:05:46.096Z,978.8
2018-11-04T18:06:49.864Z,978.8
2018-11-04T18:08:04.694Z,978.8
2018-11-04T18:09:06.192Z,978.8
2018-11-04T18:10:07.610Z,978.7
2018-11-04T18:11:11.500Z,978.7
2018-11-04T18:12:13.905Z,978.8
2018-11-04T18:13:18.340Z,978.8
2018-11-04T18:15:37.156Z,978.8
2018-11-04T18:16:46.319Z,978.7
2018-11-04T18:17:51.957Z,978.8
2018-11-04T18:18:53.367Z,978.7
2018-11-04T18:19:56.886Z,978.8
2018-11-04T18:20:58.326Z,978.7
2018-11-04T18:22:00.085Z,978.7
2018-11-04T18:23:02.853Z,978.8
2018-11-04T18:24:05.245Z,978.8
2018-11-04T18:25:10.146Z,978.8
2018-11-04T18:26:19.753Z,978.9
2018-11-04T18:27:26.557Z,978.8
2018-11-04T18:28:43.695Z,978.8
2018-11-04T18:29:46.211Z,978.9
2018-11-04T18:30:47.681Z,978.6
2018-11-04T18:31:58.039Z,978.8
2018-11-04T18:33:00.767Z,978.7
2018-11-04T18:34:07.097Z,978.8
2018-11-04T18:35:09.054Z,978.9
2018-11-04T18:36:16.627Z,978.9
2018-11-04T18:37:18.584Z,979
2018-11-04T18:38:20.006Z,978.9
2018-11-04T18:39:25.927Z,978.7
2018-11-04T18:40:29.269Z,978.8
2018-11-04T18:41:33.410Z,978.8
2018-11-04T18:42:37.597Z,978.8
2018-11-04T18:43:39.217Z,978.8
2018-11-04T18:44:42.962Z,978.8
2018-11-04T18:45:47.343Z,978.9
2018-11-04T18:46:56.862Z,978.8
2018-11-04T18:48:03.641Z,978.9
2018-11-04T18:49:06.326Z,978.6
2018-11-04T18:50:14.589Z,978.9
2018-11-04T18:51:16.305Z,978.8
2018-11-04T18:52:27.955Z,978.9
2018-11-04T18:53:32.571Z,978.7
2018-11-04T18:54:43.633Z,978.8
2018-11-04T18:55:49.329Z,978.9
2018-11-04T18:56:52.063Z,978.9
2018-11-04T18:57:56.364Z,978.9
2018-11-04T18:58:59.382Z,978.8
2018-11-04T19:00:00.910Z,978.8
2018-11-04T19:01:11.508Z,978.7
2018-11-04T19:02:21.485Z,978.7
2018-11-04T19:03:25.500Z,978.7
2018-11-04T19:04:26.870Z,978.6
2018-11-04T19:05:35.111Z,978.6
2018-11-04T19:06:37.216Z,978.6
2018-11-04T19:07:49.102Z,978.5
2018-11-04T19:08:55.619Z,978.5
2018-11-04T19:11:19.365Z,978.5
2018-11-04T19:12:20.775Z,978.5
2018-11-04T19:13:31.360Z,978.5
2018-11-04T19:14:35.078Z,978.3
2018-11-04T19:15:37.466Z,978.5
2018-11-04T19:16:39.319Z,978.5
2018-11-04T19:17:42.100Z,978.5
2018-11-04T19:18:56.760Z,978.4
2018-11-04T19:19:58.321Z,978.4
2018-11-04T19:21:01.337Z,978.4
2018-11-04T19:22:13.577Z,978.3
2018-11-04T19:23:21.776Z,978.4
2018-11-04T19:24:23.340Z,978.1
2018-11-04T19:25:26.376Z,978.2
2018-11-04T19:26:31.885Z,978.3
2018-11-04T19:27:36.271Z,978.4
2018-11-04T19:28:37.513Z,978.3
2018-11-04T19:29:39.542Z,978.3
2018-11-04T19:30:40.944Z,978.3
2018-11-04T19:31:45.145Z,978.3
2018-11-04T19:32:49.493Z,978.3
2018-11-04T19:33:51.185Z,978.3
2018-11-04T19:34:52.748Z,978.2
2018-11-04T19:36:06.188Z,978.3
2018-11-04T19:37:10.876Z,978.3
2018-11-04T19:38:14.102Z,978.2
2018-11-04T19:39:20.790Z,978
2018-11-04T19:40:25.346Z,978.3
2018-11-04T19:41:26.660Z,978.3
2018-11-04T19:42:28.345Z,978.3
2018-11-04T19:43:31.838Z,978.3
2018-11-04T19:44:37.101Z,978.3
2018-11-04T19:45:38.694Z,978.3
2018-11-04T19:46:42.193Z,978.2
2018-11-04T19:47:43.704Z,978.2
2018-11-04T19:48:50.952Z,978.3
2018-11-04T19:49:57.070Z,978.2
2018-11-04T19:50:59.131Z,978.2
2018-11-04T19:52:00.473Z,978.1
2018-11-04T19:53:01.714Z,978.1
2018-11-04T19:54:04.236Z,978.1
2018-11-04T19:55:07.969Z,978.1
2018-11-04T19:56:13.909Z,978.1
2018-11-04T19:57:26.203Z,978
2018-11-04T19:58:30.371Z,978
2018-11-04T19:59:33.797Z,978
2018-11-04T20:00:37.380Z,978.1
2018-11-04T20:01:41.844Z,978
2018-11-04T20:03:00.608Z,978
2018-11-04T20:04:11.511Z,978.1
2018-11-04T20:05:12.862Z,978
2018-11-04T20:06:14.516Z,978
2018-11-04T20:07:16.280Z,978
2018-11-04T20:08:18.102Z,978
2018-11-04T20:09:19.748Z,978
2018-11-04T20:10:25.747Z,977.9
2018-11-04T20:11:31.228Z,978
2018-11-04T20:12:34.954Z,978
2018-11-04T20:13:39.195Z,978.1
2018-11-04T20:14:40.570Z,978.1
2018-11-04T20:15:44.777Z,978.1
2018-11-04T20:16:46.665Z,978
2018-11-04T20:17:51.348Z,978
2018-11-04T20:18:55.064Z,978.1
2018-11-04T20:20:01.434Z,978
2018-11-04T20:21:07.048Z,978.1
2018-11-04T20:22:11.498Z,978.1
2018-11-04T20:23:13.017Z,978
2018-11-04T20:24:17.227Z,977.9
2018-11-04T20:26:23.814Z,978.1
2018-11-04T20:27:25.382Z,978
2018-11-04T20:28:33.399Z,978.1
2018-11-04T20:29:51.217Z,978.1
2018-11-04T20:31:05.896Z,978.1
2018-11-04T20:32:10.271Z,978.1
2018-11-04T20:33:11.813Z,978.1
2018-11-04T20:34:13.284Z,978.1
2018-11-04T20:35:14.930Z,978.1
2018-11-04T20:36:16.563Z,978
2018-11-04T20:37:18.164Z,978.1
2018-11-04T20:38:20.193Z,978.1
2018-11-04T20:39:33.860Z,978
2018-11-04T20:40:40.122Z,978
2018-11-04T20:41:45.150Z,978
2018-11-04T20:42:48.228Z,978
2018-11-04T20:43:54.604Z,978
2018-11-04T20:45:10.757Z,978
2018-11-04T20:46:13.898Z,978.1
2018-11-04T20:47:15.697Z,978.1
2018-11-04T20:48:20.250Z,978.2
2018-11-04T20:49:21.788Z,978.1
2018-11-04T20:50:26.327Z,978.2
2018-11-04T20:51:30.723Z,978.1
2018-11-04T20:52:34.491Z,978.1
2018-11-04T20:53:35.997Z,977.9
2018-11-04T20:54:43.071Z,978
2018-11-04T20:55:46.681Z,978
2018-11-04T20:56:48.167Z,978
2018-11-04T20:57:49.667Z,978
2018-11-04T20:58:53.506Z,978
2018-11-04T20:59:56.011Z,978
2018-11-04T21:01:03.471Z,978
2018-11-04T21:02:04.850Z,978
2018-11-04T21:03:07.709Z,977.9
2018-11-04T21:04:09.162Z,978
2018-11-04T21:05:10.642Z,977.8
2018-11-04T21:06:14.607Z,977.7
2018-11-04T21:07:18.552Z,977.8
2018-11-04T21:08:20.175Z,977.6
2018-11-04T21:09:32.778Z,977.8
2018-11-04T21:10:39.049Z,977.8
2018-11-04T21:11:42.427Z,977.8
2018-11-04T21:12:43.644Z,977.8
2018-11-04T21:13:47.679Z,977.7
2018-11-04T21:14:49.149Z,977.8
2018-11-04T21:15:50.433Z,977.7
2018-11-04T21:16:54.417Z,977.8
2018-11-04T21:17:57.937Z,977.8
2018-11-04T21:19:01.033Z,977.8
2018-11-04T21:20:03.546Z,977.8
2018-11-04T21:21:20.630Z,977.6
2018-11-04T21:22:24.730Z,977.8
2018-11-04T21:23:29.336Z,977.8
2018-11-04T21:24:30.615Z,977.8
2018-11-04T21:25:32.224Z,977.8
2018-11-04T21:26:35.541Z,977.8
2018-11-04T21:27:38.034Z,977.8
2018-11-04T21:28:52.167Z,977.8
2018-11-04T21:29:54.459Z,977.6
2018-11-04T21:30:57.148Z,977.7
2018-11-04T21:31:59.670Z,977.8
2018-11-04T21:33:03.528Z,977.8
2018-11-04T21:34:04.737Z,977.7
2018-11-04T21:35:20.367Z,977.7
2018-11-04T21:36:21.741Z,977.7
2018-11-04T21:37:22.967Z,977.7
2018-11-04T21:38:27.330Z,977.7
2018-11-04T21:39:30.139Z,977.7
2018-11-04T21:40:31.354Z,977.7
2018-11-04T21:41:39.176Z,977.7
2018-11-04T21:42:40.861Z,977.6
2018-11-04T21:43:44.474Z,977.6
2018-11-04T21:44:45.757Z,977.4
2018-11-04T21:45:49.173Z,977.6
2018-11-04T21:46:53.279Z,977.4
2018-11-04T21:47:57.181Z,977.6
2018-11-04T21:48:58.670Z,977.7
2018-11-04T21:50:11.638Z,977.6
2018-11-04T21:51:15.562Z,977.6
2018-11-04T21:52:22.325Z,977.5
2018-11-04T21:53:25.009Z,977.4
2018-11-04T21:54:27.051Z,977.6
2018-11-04T21:55:28.394Z,977.6
2018-11-04T21:56:30.502Z,977.4
2018-11-04T21:57:31.659Z,977.6
2018-11-04T21:58:33.741Z,977.5
2018-11-04T21:59:35.147Z,977.5
2018-11-04T22:00:39.346Z,977.5
2018-11-04T22:01:41.563Z,977.5
2018-11-04T22:02:46.737Z,977.5
2018-11-04T22:04:00.845Z,977.5
2018-11-04T22:05:05.014Z,977.5
2018-11-04T22:06:06.291Z,977.3
2018-11-04T22:07:07.495Z,977.4
2018-11-04T22:08:17.379Z,977.4
2018-11-04T22:09:20.055Z,977.4
2018-11-04T22:10:21.311Z,977.2
2018-11-04T22:11:22.712Z,977.5
2018-11-04T22:12:26.188Z,977.3
2018-11-04T22:13:27.388Z,977.4
2018-11-04T22:14:28.662Z,977.3
2018-11-04T22:15:35.098Z,977.4
2018-11-04T22:16:36.290Z,977.3
2018-11-04T22:17:37.523Z,977.4
2018-11-04T22:18:38.762Z,977.2
2018-11-04T22:19:39.990Z,977.4
2018-11-04T22:20:41.236Z,977.3
2018-11-04T22:21:45.661Z,977.3
2018-11-04T22:22:46.972Z,977.3
2018-11-04T22:23:50.349Z,977.3
2018-11-04T22:24:54.598Z,977.4
2018-11-04T22:25:56.307Z,977.3
2018-11-04T22:26:57.537Z,977.4
2018-11-04T22:27:59.100Z,977.4
2018-11-04T22:29:03.653Z,977.4
2018-11-04T22:30:04.952Z,977.4
2018-11-04T22:31:18.650Z,977.3
2018-11-04T22:32:20.103Z,977.4
2018-11-04T22:33:21.644Z,977.4
2018-11-04T22:34:25.747Z,977.4
2018-11-04T22:35:29.482Z,977.4
2018-11-04T22:36:32.502Z,977.4
2018-11-04T22:37:33.665Z,977.3
2018-11-04T22:38:37.947Z,977.2
2018-11-04T22:39:39.613Z,977.2
2018-11-04T22:40:40.875Z,977.1
2018-11-04T22:41:42.128Z,977.2
2018-11-04T22:42:46.483Z,977.2
2018-11-04T22:43:54.068Z,977.2
2018-11-04T22:44:55.306Z,977.2
2018-11-04T22:45:56.568Z,977.2
2018-11-04T22:46:58.081Z,977.2
2018-11-04T22:47:59.327Z,977.2
2018-11-04T22:49:00.551Z,977.2
2018-11-04T22:50:01.815Z,977.2
2018-11-04T22:51:03.321Z,977.3
2018-11-04T22:52:04.496Z,977.2
2018-11-04T22:53:05.901Z,977.2
2018-11-04T22:54:07.173Z,977.1
2018-11-04T22:55:10.821Z,977.1
2018-11-04T22:56:12.710Z,977.1
2018-11-04T22:57:21.189Z,977.2
2018-11-04T22:58:22.376Z,977.2
2018-11-04T22:59:24.215Z,977.2
2018-11-04T23:00:25.627Z,977
2018-11-04T23:01:26.959Z,977.2
2018-11-04T23:02:28.110Z,977.2
2018-11-04T23:03:29.316Z,977.2
2018-11-04T23:04:30.551Z,977.2
2018-11-04T23:05:34.799Z,977.1
2018-11-04T23:06:38.449Z,977.1
2018-11-04T23:07:41.224Z,977.1
2018-11-04T23:08:42.427Z,977.1
2018-11-04T23:09:49.590Z,977.1
2018-11-04T23:10:50.820Z,977.1
2018-11-04T23:11:52.109Z,977.2
2018-11-04T23:12:53.546Z,977.2
2018-11-04T23:13:57.218Z,977.3
2018-11-04T23:14:58.449Z,977.2
2018-11-04T23:15:59.663Z,977.2
2018-11-04T23:17:00.882Z,977.2
2018-11-04T23:18:02.096Z,977.2
2018-11-04T23:19:06.190Z,977.2
2018-11-04T23:20:07.349Z,977.2
2018-11-04T23:21:13.209Z,977
2018-11-04T23:22:14.492Z,977.1
2018-11-04T23:23:15.882Z,977.2
2018-11-04T23:24:18.097Z,977.2
2018-11-04T23:25:21.614Z,976.8
2018-11-04T23:26:22.803Z,977.2
2018-11-04T23:27:25.146Z,977.2
2018-11-04T23:28:26.682Z,977.1
2018-11-04T23:29:28.006Z,977.1
2018-11-04T23:30:29.227Z,977.1
2018-11-04T23:31:30.396Z,977.1
2018-11-04T23:32:31.623Z,977.1
2018-11-04T23:33:32.818Z,977.1
2018-11-04T23:34:36.195Z,977
2018-11-04T23:35:40.123Z,977.1
2018-11-04T23:36:42.103Z,977
2018-11-04T23:37:43.313Z,977.1
2018-11-04T23:38:44.528Z,977
2018-11-04T23:39:45.738Z,977
2018-11-04T23:40:46.968Z,977
2018-11-04T23:41:48.256Z,977
2018-11-04T23:42:54.154Z,976.9
2018-11-04T23:43:58.097Z,977
2018-11-04T23:44:59.290Z,977
2018-11-04T23:46:00.513Z,977
2018-11-04T23:47:01.698Z,976.9
2018-11-04T23:48:05.913Z,976.9
2018-11-04T23:49:09.459Z,976.8
2018-11-04T23:50:10.698Z,976.8
2018-11-04T23:51:11.884Z,976.8
2018-11-04T23:52:13.072Z,977
2018-11-04T23:53:14.296Z,976.9
2018-11-04T23:54:15.483Z,977
2018-11-04T23:55:22.751Z,977
2018-11-04T23:56:25.482Z,977
2018-11-04T23:57:26.657Z,977
2018-11-04T23:58:30.133Z,977
2018-11-04T23:59:32.029Z,977
